NCAR-RAP Real-Time Weather Data

Output produced by METARs form (10 April 2020  07:04 UTC)
found at http://weather.rap.ucar.edu/surface/
 
KCAE 100656Z 27008KT 10SM FEW060 17/01 A2968 RMK AO2 SLP047 T01670006